createdAt,value
2019-03-28T07:00:35.199Z,56.25
2019-03-28T07:01:35.200Z,56.25
2019-03-28T07:02:35.150Z,61.88
2019-03-28T07:03:35.146Z,61.88
2019-03-28T07:04:35.166Z,61.88
2019-03-28T07:05:35.117Z,61.88
2019-03-28T07:06:35.143Z,61.88
2019-03-28T07:07:35.095Z,61.88
2019-03-28T07:08:35.138Z,61.88
2019-03-28T07:09:35.078Z,61.88
2019-03-28T07:10:35.107Z,61.88
2019-03-28T07:11:35.053Z,61.88
2019-03-28T07:12:35.080Z,61.88
2019-03-28T07:13:35.065Z,61.88
2019-03-28T07:14:35.038Z,67.50
2019-03-28T07:15:36.710Z,67.50
2019-03-28T07:16:35.000Z,67.50
2019-03-28T07:17:35.034Z,67.50
2019-03-28T07:18:34.997Z,73.12
2019-03-28T07:19:34.968Z,73.12
2019-03-28T07:20:34.961Z,73.12
2019-03-28T07:21:34.968Z,73.12
2019-03-28T07:22:34.993Z,73.12
2019-03-28T07:23:34.925Z,78.75
2019-03-28T07:24:34.928Z,78.75
2019-03-28T07:25:34.938Z,78.75
2019-03-28T07:26:34.911Z,78.75
2019-03-28T07:27:34.906Z,84.38
2019-03-28T07:28:34.882Z,90.00
2019-03-28T07:29:34.885Z,101.25
2019-03-28T07:30:34.870Z,106.88
2019-03-28T07:31:35.580Z,106.88
2019-03-28T07:32:34.881Z,112.50
2019-03-28T07:33:34.849Z,112.50
2019-03-28T07:34:34.839Z,112.50
2019-03-28T07:35:34.807Z,118.12
2019-03-28T07:36:34.841Z,118.12
2019-03-28T07:37:34.789Z,118.12
2019-03-28T07:38:34.767Z,118.12
2019-03-28T07:39:34.764Z,118.12
2019-03-28T07:40:34.798Z,118.12
2019-03-28T07:41:34.769Z,118.12
2019-03-28T07:42:34.732Z,118.12
2019-03-28T07:43:34.717Z,123.75
2019-03-28T07:44:37.471Z,123.75
2019-03-28T07:45:34.769Z,129.38
2019-03-28T07:46:34.746Z,129.38
2019-03-28T07:47:34.668Z,129.38
2019-03-28T07:48:34.663Z,129.38
2019-03-28T07:49:37.491Z,135.00
2019-03-28T07:50:34.654Z,135.00
2019-03-28T07:51:34.694Z,135.00
2019-03-28T07:52:34.619Z,135.00
2019-03-28T07:53:34.610Z,129.38
2019-03-28T07:54:34.600Z,135.00
2019-03-28T07:55:34.608Z,135.00
2019-03-28T07:56:34.619Z,135.00
2019-03-28T07:57:34.566Z,129.38
2019-03-28T07:58:35.292Z,129.38
2019-03-28T07:59:34.559Z,123.75
2019-03-28T08:00:34.558Z,118.12
2019-03-28T08:01:34.531Z,123.75
2019-03-28T08:02:34.520Z,129.38
2019-03-28T08:03:34.550Z,135.00
2019-03-28T08:04:34.491Z,140.62
2019-03-28T08:05:34.489Z,146.25
2019-03-28T08:06:34.475Z,151.88
2019-03-28T08:07:44.235Z,151.88
2019-03-28T08:08:39.033Z,157.50
2019-03-28T08:09:36.869Z,163.12
2019-03-28T08:10:34.423Z,168.75
2019-03-28T08:11:34.584Z,174.38
2019-03-28T08:12:34.410Z,180.00
2019-03-28T08:13:34.418Z,185.62
2019-03-28T08:14:34.382Z,191.25
2019-03-28T08:15:34.426Z,191.25
2019-03-28T08:16:34.361Z,191.25
2019-03-28T08:17:34.349Z,180.00
2019-03-28T08:18:34.344Z,168.75
2019-03-28T08:19:34.324Z,163.12
2019-03-28T08:20:34.351Z,163.12
2019-03-28T08:21:34.311Z,157.50
2019-03-28T08:22:34.294Z,151.88
2019-03-28T08:23:35.491Z,151.88
2019-03-28T08:24:34.303Z,151.88
2019-03-28T08:25:34.259Z,157.50
2019-03-28T08:26:34.307Z,157.50
2019-03-28T08:27:34.237Z,157.50
2019-03-28T08:28:34.225Z,163.12
2019-03-28T08:29:34.221Z,157.50
2019-03-28T08:30:34.253Z,151.88
2019-03-28T08:31:34.196Z,146.25
2019-03-28T08:32:34.722Z,140.62
2019-03-28T08:33:34.170Z,140.62
2019-03-28T08:34:34.162Z,140.62
2019-03-28T08:35:34.184Z,146.25
2019-03-28T08:36:34.142Z,151.88
2019-03-28T08:37:34.143Z,163.12
2019-03-28T08:38:34.152Z,168.75
2019-03-28T08:39:34.118Z,174.38
2019-03-28T08:40:34.098Z,185.62
2019-03-28T08:41:34.094Z,191.25
2019-03-28T08:42:34.112Z,202.50
2019-03-28T08:43:36.053Z,208.12
2019-03-28T08:44:34.058Z,202.50
2019-03-28T08:45:34.495Z,202.50
2019-03-28T08:46:34.039Z,196.88
2019-03-28T08:47:34.054Z,191.25
2019-03-28T08:48:34.012Z,191.25
2019-03-28T08:49:34.007Z,185.62
2019-03-28T08:50:34.011Z,180.00
2019-03-28T08:51:34.123Z,180.00
2019-03-28T08:52:34.002Z,185.62
2019-03-28T08:53:33.960Z,196.88
2019-03-28T08:54:33.954Z,202.50
2019-03-28T08:55:33.941Z,208.12
2019-03-28T08:56:33.924Z,208.12
2019-03-28T08:57:33.957Z,202.50
2019-03-28T08:58:33.901Z,202.50
2019-03-28T08:59:33.907Z,202.50
2019-03-28T09:00:50.208Z,202.50
2019-03-28T09:01:34.902Z,196.88
2019-03-28T09:02:33.867Z,196.88
2019-03-28T09:03:33.856Z,202.50
2019-03-28T09:04:33.839Z,208.12
2019-03-28T09:05:33.833Z,208.12
2019-03-28T09:06:33.845Z,208.12
2019-03-28T09:07:33.821Z,202.50
2019-03-28T09:08:33.796Z,191.25
2019-03-28T09:09:33.788Z,180.00
2019-03-28T09:10:33.804Z,174.38
2019-03-28T09:11:33.765Z,168.75
2019-03-28T09:12:35.284Z,168.75
2019-03-28T09:13:33.838Z,168.75
2019-03-28T09:14:33.735Z,174.38
2019-03-28T09:15:43.640Z,174.38
2019-03-28T09:16:34.706Z,174.38
2019-03-28T09:17:33.708Z,174.38
2019-03-28T09:18:33.741Z,168.75
2019-03-28T09:19:33.678Z,168.75
2019-03-28T09:20:33.667Z,174.38
2019-03-28T09:21:33.658Z,174.38
2019-03-28T09:22:34.465Z,180.00
2019-03-28T09:23:33.712Z,180.00
2019-03-28T09:24:33.629Z,180.00
2019-03-28T09:25:33.616Z,180.00
2019-03-28T09:26:33.600Z,180.00
2019-03-28T09:27:33.594Z,180.00
2019-03-28T09:28:33.602Z,180.00
2019-03-28T09:29:33.577Z,180.00
2019-03-28T09:30:46.822Z,174.38
2019-03-28T09:31:34.549Z,168.75
2019-03-28T09:32:33.539Z,168.75
2019-03-28T09:33:33.546Z,163.12
2019-03-28T09:34:33.517Z,163.12
2019-03-28T09:35:33.560Z,163.12
2019-03-28T09:36:33.504Z,163.12
2019-03-28T09:37:33.514Z,163.12
2019-03-28T09:38:33.512Z,163.12
2019-03-28T09:39:33.471Z,163.12
2019-03-28T09:40:33.449Z,157.50
2019-03-28T09:41:33.445Z,157.50
2019-03-28T09:42:33.426Z,157.50
2019-03-28T09:43:33.452Z,151.88
2019-03-28T09:44:33.407Z,151.88
2019-03-28T09:45:33.415Z,157.50
2019-03-28T09:46:33.385Z,157.50
2019-03-28T09:47:33.393Z,146.25
2019-03-28T09:48:33.386Z,140.62
2019-03-28T09:49:33.352Z,123.75
2019-03-28T09:50:33.344Z,118.12
2019-03-28T09:51:35.206Z,123.75
2019-03-28T09:52:33.354Z,135.00
2019-03-28T09:53:33.329Z,140.62
2019-03-28T09:54:33.307Z,146.25
2019-03-28T09:55:33.317Z,146.25
2019-03-28T09:56:33.288Z,146.25
2019-03-28T09:57:33.277Z,151.88
2019-03-28T09:58:33.912Z,151.88
2019-03-28T09:59:33.242Z,151.88
2019-03-28T10:00:34.606Z,151.88
2019-03-28T10:01:33.255Z,151.88
2019-03-28T10:02:33.215Z,157.50
2019-03-28T10:03:33.202Z,163.12
2019-03-28T10:04:33.230Z,163.12
2019-03-28T10:05:33.187Z,163.12
2019-03-28T10:06:33.172Z,163.12
2019-03-28T10:07:33.160Z,157.50
2019-03-28T10:08:33.148Z,157.50
2019-03-28T10:09:33.173Z,157.50
2019-03-28T10:10:33.136Z,157.50
2019-03-28T10:11:33.116Z,157.50
2019-03-28T10:12:34.323Z,157.50
2019-03-28T10:13:33.103Z,157.50
2019-03-28T10:14:33.119Z,163.12
2019-03-28T10:15:33.119Z,163.12
2019-03-28T10:16:33.095Z,157.50
2019-03-28T10:17:33.065Z,157.50
2019-03-28T10:18:33.039Z,157.50
2019-03-28T10:19:33.059Z,157.50
2019-03-28T10:20:33.060Z,157.50
2019-03-28T10:21:33.013Z,163.12
2019-03-28T10:22:32.994Z,168.75
2019-03-28T10:23:32.986Z,168.75
2019-03-28T10:24:32.994Z,168.75
2019-03-28T10:25:32.991Z,174.38
2019-03-28T10:26:32.981Z,174.38
2019-03-28T10:27:32.954Z,180.00
2019-03-28T10:28:32.935Z,180.00
2019-03-28T10:29:32.950Z,185.62
2019-03-28T10:30:32.917Z,185.62
2019-03-28T10:31:32.937Z,196.88
2019-03-28T10:32:32.895Z,202.50
2019-03-28T10:33:32.885Z,208.12
2019-03-28T10:34:32.871Z,213.75
2019-03-28T10:35:32.859Z,219.38
2019-03-28T10:36:32.882Z,225.00
2019-03-28T10:37:32.840Z,225.00
2019-03-28T10:38:32.831Z,230.62
2019-03-28T10:39:32.844Z,241.88
2019-03-28T10:40:32.807Z,253.12
2019-03-28T10:41:32.842Z,270.00
2019-03-28T10:42:32.795Z,281.25
2019-03-28T10:43:32.783Z,281.25
2019-03-28T10:44:32.760Z,270.00
2019-03-28T10:45:33.755Z,253.12
2019-03-28T10:46:32.763Z,253.12
2019-03-28T10:47:32.731Z,258.75
2019-03-28T10:48:32.728Z,281.25
2019-03-28T10:49:32.736Z,309.38
2019-03-28T10:50:40.742Z,354.38
2019-03-28T10:51:33.729Z,388.12
2019-03-28T10:52:32.675Z,427.50
2019-03-28T10:53:32.676Z,444.38
2019-03-28T10:54:32.658Z,427.50
2019-03-28T10:55:32.639Z,410.62
2019-03-28T10:56:32.631Z,405.00
2019-03-28T10:57:32.678Z,405.00
2019-03-28T10:58:34.980Z,416.25
2019-03-28T10:59:32.598Z,433.12
2019-03-28T11:00:32.602Z,444.38
2019-03-28T11:01:47.496Z,472.50
2019-03-28T11:02:33.592Z,523.12
2019-03-28T11:03:32.580Z,596.25
2019-03-28T11:04:32.546Z,658.12
2019-03-28T11:05:32.541Z,720.00
2019-03-28T11:06:32.723Z,680.62
2019-03-28T11:07:32.556Z,658.12
2019-03-28T11:08:32.513Z,624.38
2019-03-28T11:09:32.498Z,585.00
2019-03-28T11:10:32.480Z,573.75
2019-03-28T11:11:32.494Z,596.25
2019-03-28T11:12:32.464Z,590.62
2019-03-28T11:13:32.461Z,585.00
2019-03-28T11:14:32.473Z,568.12
2019-03-28T11:15:32.428Z,523.12
2019-03-28T11:16:32.412Z,489.38
2019-03-28T11:17:32.404Z,489.38
2019-03-28T11:18:32.434Z,495.00
2019-03-28T11:19:32.389Z,489.38
2019-03-28T11:20:32.375Z,489.38
2019-03-28T11:21:34.304Z,472.50
2019-03-28T11:22:32.352Z,472.50
2019-03-28T11:23:32.702Z,478.12
2019-03-28T11:24:32.331Z,466.88
2019-03-28T11:25:32.334Z,472.50
2019-03-28T11:26:32.315Z,489.38
2019-03-28T11:27:32.299Z,500.62
2019-03-28T11:28:32.326Z,495.00
2019-03-28T11:29:32.296Z,506.25
2019-03-28T11:30:32.277Z,540.00
2019-03-28T11:31:45.259Z,585.00
2019-03-28T11:32:35.789Z,663.75
2019-03-28T11:33:32.250Z,686.25
2019-03-28T11:34:32.235Z,675.00
2019-03-28T11:35:32.683Z,658.12
2019-03-28T11:36:32.204Z,669.38
2019-03-28T11:37:32.200Z,708.75
2019-03-28T11:38:32.210Z,770.62
2019-03-28T11:39:32.316Z,900.00
2019-03-28T11:40:32.171Z,1198.12
2019-03-28T11:41:32.166Z,1085.62
2019-03-28T11:42:32.140Z,1068.75
2019-03-28T11:43:32.127Z,973.12
2019-03-28T11:44:32.154Z,894.38
2019-03-28T11:45:32.107Z,883.12
2019-03-28T11:46:32.098Z,945.00
2019-03-28T11:47:32.095Z,1001.25
2019-03-28T11:48:32.090Z,945.00
2019-03-28T11:49:32.118Z,945.00
2019-03-28T11:50:32.054Z,911.25
2019-03-28T11:51:32.040Z,905.62
2019-03-28T11:52:32.031Z,928.12
2019-03-28T11:53:32.022Z,1001.25
2019-03-28T11:54:32.043Z,1040.62
2019-03-28T11:55:31.999Z,1074.38
2019-03-28T11:56:31.995Z,1001.25
2019-03-28T11:57:31.978Z,905.62
2019-03-28T11:58:31.970Z,849.38
2019-03-28T11:59:32.560Z,877.50
2019-03-28T12:00:31.978Z,990.00
2019-03-28T12:01:31.942Z,1130.62
2019-03-28T12:02:31.930Z,1181.25
2019-03-28T12:03:31.918Z,1063.12
2019-03-28T12:04:31.928Z,1006.88
2019-03-28T12:05:31.917Z,978.75
2019-03-28T12:06:31.885Z,1057.50
2019-03-28T12:07:31.908Z,1355.62
2019-03-28T12:08:31.856Z,1406.25
2019-03-28T12:09:31.866Z,1040.62
2019-03-28T12:10:31.914Z,1018.12
2019-03-28T12:11:31.852Z,990.00
2019-03-28T12:12:31.832Z,939.38
2019-03-28T12:13:44.244Z,905.62
2019-03-28T12:14:32.794Z,883.12
2019-03-28T12:15:31.812Z,866.25
2019-03-28T12:16:31.805Z,832.50
2019-03-28T12:17:31.769Z,798.75
2019-03-28T12:18:31.773Z,787.50
2019-03-28T12:19:31.739Z,810.00
2019-03-28T12:20:31.763Z,855.00
2019-03-28T12:21:31.723Z,900.00
2019-03-28T12:22:31.711Z,939.38
2019-03-28T12:23:31.699Z,928.12
2019-03-28T12:24:31.723Z,905.62
2019-03-28T12:25:31.705Z,849.38
2019-03-28T12:26:31.666Z,793.12
2019-03-28T12:27:31.655Z,776.25
2019-03-28T12:28:31.645Z,832.50
2019-03-28T12:29:31.681Z,905.62
2019-03-28T12:30:31.661Z,990.00
2019-03-28T12:31:33.214Z,967.50
2019-03-28T12:32:31.606Z,967.50
2019-03-28T12:33:31.606Z,911.25
2019-03-28T12:34:31.609Z,916.88
2019-03-28T12:35:31.615Z,956.25
2019-03-28T12:36:31.560Z,950.62
2019-03-28T12:37:31.557Z,832.50
2019-03-28T12:38:31.551Z,753.75
2019-03-28T12:39:31.532Z,703.12
2019-03-28T12:40:31.540Z,691.88
2019-03-28T12:41:31.507Z,731.25
2019-03-28T12:42:31.521Z,770.62
2019-03-28T12:43:31.488Z,759.38
2019-03-28T12:44:31.483Z,748.12
2019-03-28T12:45:31.472Z,765.00
2019-03-28T12:46:31.486Z,781.88
2019-03-28T12:47:41.507Z,815.62
2019-03-28T12:48:32.560Z,866.25
2019-03-28T12:49:31.422Z,888.75
2019-03-28T12:50:31.411Z,838.12
2019-03-28T12:51:31.426Z,787.50
2019-03-28T12:52:31.393Z,770.62
2019-03-28T12:53:31.375Z,742.50
2019-03-28T12:54:31.370Z,708.75
2019-03-28T12:55:31.353Z,658.12
2019-03-28T12:56:31.373Z,607.50
2019-03-28T12:57:31.354Z,601.88
2019-03-28T12:58:31.327Z,641.25
2019-03-28T12:59:33.727Z,720.00
2019-03-28T13:00:31.330Z,883.12
2019-03-28T13:01:31.300Z,990.00
2019-03-28T13:02:32.076Z,933.75
2019-03-28T13:03:44.456Z,922.50
2019-03-28T13:04:32.259Z,787.50
2019-03-28T13:05:34.502Z,765.00
2019-03-28T13:06:31.268Z,770.62
2019-03-28T13:07:31.274Z,798.75
2019-03-28T13:08:31.221Z,798.75
2019-03-28T13:09:31.226Z,770.62
2019-03-28T13:10:31.195Z,742.50
2019-03-28T13:11:31.188Z,742.50
2019-03-28T13:12:31.177Z,742.50
2019-03-28T13:13:31.196Z,736.88
2019-03-28T13:14:31.488Z,720.00
2019-03-28T13:15:31.151Z,708.75
2019-03-28T13:16:31.612Z,703.12
2019-03-28T13:17:31.164Z,669.38
2019-03-28T13:18:31.138Z,641.25
2019-03-28T13:19:31.103Z,618.75
2019-03-28T13:20:31.095Z,568.12
2019-03-28T13:21:31.093Z,534.38
2019-03-28T13:22:31.071Z,511.88
2019-03-28T13:23:31.079Z,517.50
2019-03-28T13:24:31.076Z,523.12
2019-03-28T13:25:31.050Z,528.75
2019-03-28T13:26:31.026Z,455.62
2019-03-28T13:27:34.370Z,405.00
2019-03-28T13:28:31.005Z,371.25
2019-03-28T13:29:31.022Z,365.62
2019-03-28T13:30:31.003Z,376.88
2019-03-28T13:31:30.976Z,405.00
2019-03-28T13:32:41.216Z,433.12
2019-03-28T13:33:32.000Z,438.75
2019-03-28T13:34:30.949Z,438.75
2019-03-28T13:35:30.929Z,455.62
2019-03-28T13:36:30.925Z,495.00
2019-03-28T13:37:30.917Z,545.62
2019-03-28T13:38:30.897Z,601.88
2019-03-28T13:39:30.924Z,596.25
2019-03-28T13:40:30.891Z,540.00
2019-03-28T13:41:30.862Z,500.62
2019-03-28T13:42:30.849Z,495.00
2019-03-28T13:43:30.955Z,483.75
2019-03-28T13:44:30.929Z,472.50
2019-03-28T13:45:30.825Z,455.62
2019-03-28T13:46:30.810Z,438.75
2019-03-28T13:47:30.832Z,438.75
2019-03-28T13:48:30.831Z,433.12
2019-03-28T13:49:30.775Z,461.25
2019-03-28T13:50:30.767Z,495.00
2019-03-28T13:51:30.755Z,511.88
2019-03-28T13:52:30.755Z,500.62
2019-03-28T13:53:39.441Z,461.25
2019-03-28T13:54:31.737Z,455.62
2019-03-28T13:55:30.708Z,483.75
2019-03-28T13:56:30.728Z,528.75
2019-03-28T13:57:30.685Z,523.12
2019-03-28T13:58:30.684Z,472.50
2019-03-28T13:59:31.877Z,410.62
2019-03-28T14:00:30.677Z,376.88
2019-03-28T14:01:30.703Z,365.62
2019-03-28T14:02:30.634Z,371.25
2019-03-28T14:03:30.620Z,376.88
2019-03-28T14:04:30.644Z,388.12
2019-03-28T14:05:30.599Z,399.38
2019-03-28T14:06:30.865Z,416.25
2019-03-28T14:07:30.597Z,416.25
2019-03-28T14:08:30.637Z,399.38
2019-03-28T14:09:30.554Z,376.88
2019-03-28T14:10:30.604Z,388.12
2019-03-28T14:11:30.563Z,399.38
2019-03-28T14:12:31.931Z,433.12
2019-03-28T14:13:30.512Z,461.25
2019-03-28T14:14:30.498Z,472.50
2019-03-28T14:15:30.509Z,438.75
2019-03-28T14:16:30.885Z,405.00
2019-03-28T14:17:30.464Z,376.88
2019-03-28T14:18:30.486Z,365.62
2019-03-28T14:19:30.467Z,365.62
2019-03-28T14:20:30.440Z,360.00
2019-03-28T14:21:30.458Z,348.75
2019-03-28T14:22:30.591Z,331.88
2019-03-28T14:23:30.405Z,320.62
2019-03-28T14:24:30.396Z,315.00
2019-03-28T14:25:30.379Z,309.38
2019-03-28T14:26:30.363Z,303.75
2019-03-28T14:27:30.928Z,298.12
2019-03-28T14:28:30.340Z,292.50
2019-03-28T14:29:30.349Z,298.12
2019-03-28T14:30:30.322Z,326.25
2019-03-28T14:31:30.336Z,360.00
2019-03-28T14:32:33.081Z,393.75
2019-03-28T14:33:30.286Z,416.25
2019-03-28T14:34:30.273Z,348.75
2019-03-28T14:35:30.264Z,337.50
2019-03-28T14:36:30.457Z,320.62
2019-03-28T14:37:30.246Z,309.38
2019-03-28T14:38:30.229Z,298.12
2019-03-28T14:39:30.295Z,281.25
2019-03-28T14:40:30.237Z,275.62
2019-03-28T14:41:30.206Z,264.38
2019-03-28T14:42:30.204Z,264.38
2019-03-28T14:43:30.185Z,258.75
2019-03-28T14:44:30.201Z,258.75
2019-03-28T14:45:30.197Z,258.75
2019-03-28T14:46:30.151Z,258.75
2019-03-28T14:47:30.132Z,253.12
2019-03-28T14:48:30.137Z,247.50
2019-03-28T14:49:30.278Z,247.50
2019-03-28T14:50:30.150Z,253.12
2019-03-28T14:51:30.091Z,258.75
2019-03-28T14:52:30.101Z,258.75
2019-03-28T14:53:30.074Z,258.75
2019-03-28T14:54:30.079Z,247.50
2019-03-28T14:55:30.149Z,230.62
2019-03-28T14:56:30.090Z,219.38
2019-03-28T14:57:30.022Z,213.75
2019-03-28T14:58:30.019Z,202.50
2019-03-28T14:59:32.668Z,191.25
2019-03-28T15:00:30.074Z,185.62
2019-03-28T15:01:30.037Z,174.38
2019-03-28T15:02:30.001Z,157.50
2019-03-28T15:03:29.960Z,140.62
2019-03-28T15:04:29.994Z,135.00
2019-03-28T15:05:29.945Z,123.75
2019-03-28T15:06:29.969Z,118.12
2019-03-28T15:07:29.925Z,112.50
2019-03-28T15:08:29.919Z,112.50
2019-03-28T15:09:30.008Z,112.50
2019-03-28T15:10:29.876Z,112.50
2019-03-28T15:11:30.186Z,112.50
2019-03-28T15:12:29.859Z,112.50
2019-03-28T15:13:29.861Z,106.88
2019-03-28T15:14:29.877Z,106.88
2019-03-28T15:15:29.853Z,106.88
2019-03-28T15:16:29.861Z,106.88
2019-03-28T15:17:29.969Z,106.88
2019-03-28T15:18:30.023Z,101.25
2019-03-28T15:19:29.793Z,101.25
2019-03-28T15:20:29.828Z,101.25
2019-03-28T15:21:29.821Z,101.25
2019-03-28T15:22:29.756Z,95.62
2019-03-28T15:23:29.772Z,90.00
2019-03-28T15:24:29.766Z,84.38
2019-03-28T15:25:29.779Z,84.38
2019-03-28T15:26:30.384Z,84.38
2019-03-28T15:27:29.711Z,84.38
2019-03-28T15:28:29.700Z,78.75
2019-03-28T15:29:29.683Z,78.75
2019-03-28T15:30:29.889Z,73.12
2019-03-28T15:31:29.669Z,73.12
2019-03-28T15:32:30.803Z,73.12
2019-03-28T15:33:39.280Z,73.12
2019-03-28T15:34:30.648Z,73.12
2019-03-28T15:35:29.656Z,73.12
2019-03-28T15:36:29.653Z,73.12
2019-03-28T15:37:29.605Z,73.12
2019-03-28T15:38:31.243Z,73.12
2019-03-28T15:39:29.600Z,73.12
2019-03-28T15:40:29.577Z,73.12
2019-03-28T15:41:29.697Z,73.12
2019-03-28T15:42:29.545Z,67.50
2019-03-28T15:43:29.534Z,67.50
2019-03-28T15:44:29.652Z,67.50
2019-03-28T15:45:29.574Z,67.50
2019-03-28T15:46:29.541Z,67.50
2019-03-28T15:47:29.517Z,67.50
2019-03-28T15:48:29.494Z,67.50
2019-03-28T15:49:29.568Z,67.50
2019-03-28T15:50:29.470Z,67.50
2019-03-28T15:51:29.447Z,67.50
2019-03-28T15:52:29.444Z,67.50
2019-03-28T15:53:29.453Z,67.50
2019-03-28T15:54:29.493Z,67.50
2019-03-28T15:55:29.447Z,67.50
2019-03-28T15:56:29.404Z,67.50
2019-03-28T15:57:29.484Z,67.50
2019-03-28T15:58:29.373Z,67.50
2019-03-28T15:59:29.385Z,67.50
2019-03-28T16:00:29.427Z,67.50
2019-03-28T16:01:29.356Z,67.50
2019-03-28T16:02:29.360Z,73.12
2019-03-28T16:04:09.587Z,73.12
2019-03-28T16:05:38.113Z,67.50
2019-03-28T16:06:29.389Z,73.12
2019-03-28T16:07:29.647Z,73.12
2019-03-28T16:08:29.366Z,67.50
2019-03-28T16:09:29.255Z,67.50
2019-03-28T16:10:29.267Z,67.50
2019-03-28T16:11:29.283Z,67.50
2019-03-28T16:12:29.403Z,67.50
2019-03-28T16:13:29.220Z,61.88
2019-03-28T16:14:29.306Z,61.88
2019-03-28T16:15:29.198Z,61.88
2019-03-28T16:16:29.225Z,61.88
2019-03-28T16:17:29.168Z,61.88
2019-03-28T16:18:29.179Z,61.88
2019-03-28T16:19:32.154Z,61.88
2019-03-28T16:20:29.144Z,67.50
2019-03-28T16:21:29.123Z,67.50
2019-03-28T16:22:29.135Z,67.50
2019-03-28T16:23:29.573Z,67.50
2019-03-28T16:24:29.104Z,67.50
2019-03-28T16:25:29.105Z,73.12
2019-03-28T16:26:29.098Z,73.12
2019-03-28T16:27:29.097Z,73.12
2019-03-28T16:28:31.107Z,73.12
2019-03-28T16:29:34.103Z,67.50
2019-03-28T16:30:29.035Z,67.50
2019-03-28T16:31:29.025Z,67.50
2019-03-28T16:32:29.008Z,61.88
2019-03-28T16:33:29.005Z,61.88
2019-03-28T16:34:28.988Z,56.25
2019-03-28T16:35:29.026Z,56.25
2019-03-28T16:36:28.973Z,50.62
2019-03-28T16:37:28.990Z,50.62
2019-03-28T16:38:29.038Z,50.62
2019-03-28T16:40:39.339Z,50.62
2019-03-28T16:41:39.260Z,50.62
2019-03-28T16:42:39.276Z,50.62
2019-03-28T16:43:39.320Z,50.62
2019-03-28T16:44:39.410Z,50.62
2019-03-28T16:45:39.461Z,50.62
2019-03-28T16:46:39.248Z,50.62
2019-03-28T16:47:39.236Z,45.00
2019-03-28T16:48:39.203Z,45.00
2019-03-28T16:49:39.554Z,45.00
2019-03-28T16:50:39.158Z,45.00
2019-03-28T16:51:39.223Z,39.38
2019-03-28T16:52:39.151Z,39.38
2019-03-28T16:53:39.260Z,39.38
2019-03-28T16:54:39.181Z,39.38
2019-03-28T16:55:39.111Z,39.38
2019-03-28T16:56:39.122Z,33.75
2019-03-28T16:57:39.502Z,28.12
2019-03-28T16:58:39.121Z,28.12
2019-03-28T16:59:39.875Z,28.12
2019-03-28T17:00:39.057Z,22.50
2019-03-28T17:01:39.086Z,22.50
2019-03-28T17:02:39.054Z,22.50
2019-03-28T17:03:39.021Z,22.50
2019-03-28T17:04:39.015Z,22.50
2019-03-28T17:05:39.009Z,22.50
2019-03-28T17:06:39.024Z,22.50
2019-03-28T17:07:38.983Z,16.88
2019-03-28T17:08:39.052Z,16.88
2019-03-28T17:09:39.252Z,16.88
2019-03-28T17:10:38.957Z,16.88
2019-03-28T17:11:39.067Z,16.88
2019-03-28T17:12:39.023Z,16.88
2019-03-28T17:13:38.932Z,16.88
2019-03-28T17:14:38.906Z,16.88
2019-03-28T17:15:38.918Z,11.25
2019-03-28T17:16:38.917Z,11.25
2019-03-28T17:17:38.894Z,11.25
2019-03-28T17:18:38.974Z,11.25
2019-03-28T17:19:38.861Z,11.25
2019-03-28T17:20:38.844Z,11.25
2019-03-28T17:21:39.752Z,11.25
2019-03-28T17:22:38.868Z,11.25
2019-03-28T17:23:38.856Z,11.25
2019-03-28T17:24:38.808Z,11.25
2019-03-28T17:25:38.793Z,11.25
2019-03-28T17:26:38.782Z,11.25
2019-03-28T17:27:38.772Z,5.62
2019-03-28T17:28:38.799Z,5.62
2019-03-28T17:29:38.766Z,5.62
2019-03-28T17:30:38.738Z,5.62
2019-03-28T17:31:38.995Z,5.62
2019-03-28T17:32:38.911Z,5.62
2019-03-28T17:33:38.741Z,5.62
2019-03-28T17:34:38.737Z,5.62
2019-03-28T17:35:38.701Z,5.62
2019-03-28T17:36:38.680Z,5.62
2019-03-28T17:37:38.680Z,5.62
2019-03-28T17:38:38.715Z,5.62
2019-03-28T17:39:38.703Z,5.62
2019-03-28T17:40:38.732Z,5.62
2019-03-28T17:41:38.627Z,5.62
2019-03-28T17:42:38.700Z,5.62
2019-03-28T17:43:38.621Z,0.00
2019-03-28T17:44:38.613Z,0.00
2019-03-28T17:45:38.618Z,0.00
2019-03-28T17:46:38.599Z,0.00
2019-03-28T17:47:38.572Z,0.00
2019-03-28T17:48:38.554Z,0.00
2019-03-28T17:49:38.538Z,0.00
2019-03-28T17:50:38.569Z,0.00
2019-03-28T17:51:40.492Z,0.00
2019-03-28T17:52:38.498Z,0.00
2019-03-28T17:53:38.498Z,0.00
2019-03-28T17:54:38.582Z,0.00
2019-03-28T17:55:38.558Z,0.00
2019-03-28T17:56:38.507Z,0.00
2019-03-28T17:57:39.603Z,0.00
2019-03-28T17:58:38.455Z,0.00
2019-03-28T17:59:38.455Z,0.00
2019-03-28T18:00:38.516Z,0.00
2019-03-28T18:01:38.419Z,0.00
2019-03-28T18:02:38.402Z,0.00
2019-03-28T18:03:38.378Z,0.00
2019-03-28T18:04:47.937Z,0.00
2019-03-28T18:05:40.794Z,0.00
2019-03-28T18:06:39.944Z,0.00
2019-03-28T18:07:38.340Z,0.00
2019-03-28T18:08:38.426Z,0.00
2019-03-28T18:09:38.374Z,0.00
2019-03-28T18:10:38.330Z,0.00
2019-03-28T18:11:38.345Z,0.00
2019-03-28T18:12:38.287Z,0.00
2019-03-28T18:13:38.276Z,0.00
2019-03-28T18:14:38.272Z,0.00
2019-03-28T18:15:38.268Z,0.00
2019-03-28T18:16:38.283Z,0.00
2019-03-28T18:17:38.260Z,0.00
2019-03-28T18:18:38.307Z,0.00
2019-03-28T18:19:38.219Z,0.00
2019-03-28T18:20:38.209Z,0.00
2019-03-28T18:21:38.227Z,0.00
2019-03-28T18:22:38.361Z,0.00
2019-03-28T18:23:38.994Z,0.00
2019-03-28T18:24:38.227Z,0.00
2019-03-28T18:25:38.181Z,0.00
2019-03-28T18:26:38.227Z,0.00
2019-03-28T18:27:38.128Z,0.00
2019-03-28T18:28:38.153Z,0.00
2019-03-28T18:29:38.107Z,0.00
2019-03-28T18:30:38.192Z,0.00
2019-03-28T18:31:49.645Z,0.00
2019-03-28T18:32:39.599Z,0.00
2019-03-28T18:33:38.072Z,0.00
2019-03-28T18:34:38.050Z,0.00
2019-03-28T18:35:38.046Z,0.00
2019-03-28T18:36:38.091Z,0.00
2019-03-28T18:37:38.016Z,0.00
2019-03-28T18:38:38.016Z,0.00
2019-03-28T18:39:38.946Z,0.00
2019-03-28T18:40:38.087Z,0.00
2019-03-28T18:41:39.972Z,0.00
2019-03-28T18:42:38.001Z,0.00
2019-03-28T18:43:38.094Z,0.00
2019-03-28T18:44:38.016Z,0.00
2019-03-28T18:45:38.103Z,0.00
2019-03-28T18:46:40.287Z,0.00
2019-03-28T18:47:41.036Z,0.00
2019-03-28T18:48:38.493Z,0.00
2019-03-28T18:49:37.940Z,0.00
2019-03-28T18:50:41.153Z,0.00
2019-03-28T18:51:37.896Z,0.00
2019-03-28T18:52:37.909Z,0.00
2019-03-28T18:53:37.852Z,0.00
2019-03-28T18:54:37.921Z,0.00
2019-03-28T18:55:38.115Z,0.00
2019-03-28T18:56:37.986Z,0.00
2019-03-28T18:57:37.959Z,0.00
2019-03-28T18:58:37.899Z,0.00
2019-03-28T18:59:37.812Z,0.00
2019-03-28T19:00:37.794Z,0.00
2019-03-28T19:01:37.857Z,0.00
2019-03-28T19:02:37.807Z,0.00
2019-03-28T19:03:37.891Z,0.00
2019-03-28T19:04:37.759Z,0.00
2019-03-28T19:05:37.719Z,0.00
2019-03-28T19:06:37.708Z,0.00
2019-03-28T19:07:37.695Z,0.00
2019-03-28T19:08:37.722Z,0.00
2019-03-28T19:09:37.735Z,0.00
2019-03-28T19:10:37.838Z,0.00
2019-03-28T19:11:40.773Z,0.00
2019-03-28T19:12:37.653Z,0.00
2019-03-28T19:13:37.657Z,0.00
2019-03-28T19:14:37.622Z,0.00
2019-03-28T19:15:37.696Z,0.00
2019-03-28T19:16:37.615Z,0.00
2019-03-28T19:17:37.599Z,0.00
2019-03-28T19:18:37.618Z,0.00
2019-03-28T19:19:39.658Z,0.00
2019-03-28T19:20:37.561Z,0.00
2019-03-28T19:21:37.562Z,0.00
2019-03-28T19:22:37.539Z,0.00
2019-03-28T19:23:37.558Z,0.00
2019-03-28T19:24:37.516Z,0.00
2019-03-28T19:25:37.514Z,0.00
2019-03-28T19:26:37.512Z,0.00
2019-03-28T19:27:37.524Z,0.00
2019-03-28T19:28:37.492Z,0.00
2019-03-28T19:29:37.475Z,0.00
2019-03-28T19:30:38.709Z,0.00
2019-03-28T19:31:37.447Z,0.00
2019-03-28T19:32:37.431Z,0.00
2019-03-28T19:33:38.363Z,0.00
2019-03-28T19:34:37.413Z,0.00
2019-03-28T19:35:37.431Z,0.00
2019-03-28T19:36:37.404Z,0.00
2019-03-28T19:37:37.398Z,0.00
2019-03-28T19:38:37.380Z,0.00
2019-03-28T19:39:37.361Z,0.00
2019-03-28T19:40:37.379Z,0.00
2019-03-28T19:41:37.353Z,0.00
2019-03-28T19:42:37.329Z,0.00
2019-03-28T19:43:37.315Z,0.00